Time;durP1;ratioP1;P1;durP2;ratioP2;P2;SDS_P1;SDS_P2;PMS_P1;PMS_P2;Temp;Humidity;BMP_temperature;BMP_pressure;BME280_temperature;BME280_humidity;BME280_pressure;Samples;Min_cycle;Max_cycle;Signal;HPM_P1;HPM_P2
2022/08/16 00:00:25;;;;;;;20.40;13.15;;;22.70;99.90;;;;;;5098026;28;20044;-79
2022/08/16 00:07:09;;;;;;;16.75;12.23;;;22.70;99.90;;;;;;5098731;28;20507;-79
2022/08/16 00:09:34;;;;;;;17.10;12.20;;;22.60;99.90;;;;;;5098556;28;20043;-79
2022/08/16 00:12:01;;;;;;;17.83;12.45;;;22.60;99.90;;;;;;5080237;28;20048;-80
2022/08/16 00:18:09;;;;;;;15.98;12.80;;;22.60;99.90;;;;;;5098475;28;20110;-79
2022/08/16 00:20:36;;;;;;;18.63;12.40;;;22.60;99.90;;;;;;5098016;28;20431;-79
2022/08/16 00:27:08;;;;;;;17.67;13.20;;;22.60;99.90;;;;;;5116430;28;20078;-79
2022/08/16 00:29:34;;;;;;;17.77;13.07;;;22.60;99.90;;;;;;5114776;28;20076;-77
2022/08/16 00:32:03;;;;;;;17.65;13.30;;;22.60;99.90;;;;;;5117169;28;20044;-79
2022/08/16 00:38:12;;;;;;;18.88;13.63;;;22.60;99.90;;;;;;5115216;28;20066;-78
2022/08/16 00:40:42;;;;;;;18.83;14.52;;;22.60;99.90;;;;;;5115429;28;20051;-79
2022/08/16 00:47:15;;;;;;;17.17;12.70;;;22.50;99.90;;;;;;5115690;28;20043;-79
2022/08/16 00:49:40;;;;;;;20.38;14.02;;;22.50;99.90;;;;;;5115605;28;20119;-79
2022/08/16 00:52:06;;;;;;;15.82;13.15;;;22.40;99.90;;;;;;5116671;28;20052;-79
2022/08/16 00:58:15;;;;;;;17.30;13.15;;;22.40;99.90;;;;;;5114633;28;20504;-79
2022/08/16 01:00:42;;;;;;;16.63;13.57;;;22.40;99.90;;;;;;5118487;28;20039;-79
2022/08/16 01:07:06;;;;;;;18.35;13.60;;;22.40;99.90;;;;;;5101350;28;20040;-79
2022/08/16 01:09:35;;;;;;;17.05;13.02;;;22.30;99.90;;;;;;5096043;28;20036;-79
2022/08/16 01:12:04;;;;;;;18.05;12.95;;;22.30;99.90;;;;;;5095990;28;20048;-79
2022/08/16 01:18:16;;;;;;;17.23;12.80;;;22.40;99.90;;;;;;5096245;28;20042;-78
2022/08/16 01:20:46;;;;;;;15.77;12.98;;;22.20;99.90;;;;;;5076689;28;20055;-79
2022/08/16 01:27:08;;;;;;;17.88;12.77;;;22.30;99.90;;;;;;5094159;28;20085;-79
2022/08/16 01:29:40;;;;;;;17.17;12.93;;;22.30;99.90;;;;;;5094629;28;20529;-79
2022/08/16 01:32:06;;;;;;;16.83;12.85;;;22.30;99.90;;;;;;5094767;28;20040;-79
2022/08/16 01:38:23;;;;;;;16.65;13.30;;;22.30;99.90;;;;;;5093952;28;20038;-78
2022/08/16 01:40:52;;;;;;;17.25;12.77;;;22.20;99.90;;;;;;5075700;28;20079;-79
2022/08/16 01:47:02;;;;;;;15.23;12.68;;;22.20;99.90;;;;;;5094151;28;20503;-78
2022/08/16 01:49:32;;;;;;;15.15;12.98;;;22.20;99.90;;;;;;5094232;28;20059;-78
2022/08/16 01:52:07;;;;;;;15.00;13.18;;;22.20;99.90;;;;;;5094306;28;20373;-79
2022/08/16 01:57:55;;;;;;;16.60;13.73;;;22.20;99.90;;;;;;5094407;28;19981;-78
2022/08/16 02:00:22;;;;;;;18.55;13.80;;;22.20;99.90;;;;;;5093958;28;20044;-79
2022/08/16 02:07:02;;;;;;;16.85;14.38;;;22.10;99.90;;;;;;5093758;28;20042;-79
2022/08/16 02:09:28;;;;;;;17.85;14.18;;;22.00;99.90;;;;;;5093942;28;20040;-78
2022/08/16 02:11:57;;;;;;;19.63;15.13;;;22.00;99.90;;;;;;5093990;28;20040;-78
2022/08/16 02:18:04;;;;;;;18.17;15.15;;;21.90;99.90;;;;;;5093923;28;20400;-80
2022/08/16 02:20:34;;;;;;;18.23;15.27;;;21.80;99.90;;;;;;5093784;28;20055;-80
2022/08/16 02:27:12;;;;;;;17.52;15.48;;;21.80;99.90;;;;;;5093761;28;20051;-79
2022/08/16 02:33:20;;;;;;;17.95;15.18;;;21.80;99.90;;;;;;5093531;28;20044;-79
2022/08/16 02:35:46;;;;;;;21.40;15.70;;;21.80;99.90;;;;;;5093464;28;20078;-79
2022/08/16 02:38:12;;;;;;;18.52;15.57;;;21.80;99.90;;;;;;5094732;28;20040;-78
2022/08/16 02:40:38;;;;;;;18.75;16.65;;;21.80;99.90;;;;;;5097507;28;20408;-79
2022/08/16 02:47:09;;;;;;;19.77;16.48;;;21.80;99.90;;;;;;5097596;28;20040;-79
2022/08/16 02:49:35;;;;;;;22.60;15.77;;;21.80;99.90;;;;;;5097476;28;20040;-79
2022/08/16 02:52:00;;;;;;;17.45;15.52;;;21.80;99.90;;;;;;5097636;28;20044;-79
2022/08/16 02:58:07;;;;;;;17.92;14.93;;;21.80;99.90;;;;;;5097331;28;20435;-79
2022/08/16 03:00:33;;;;;;;19.83;16.02;;;21.70;99.90;;;;;;5096885;28;20557;-78
2022/08/16 03:07:07;;;;;;;18.52;15.35;;;21.70;99.90;;;;;;5097465;28;20035;-79
2022/08/16 03:09:34;;;;;;;19.20;14.90;;;21.70;99.90;;;;;;5096960;28;20044;-79
2022/08/16 03:12:00;;;;;;;16.90;15.20;;;21.80;99.90;;;;;;5096612;28;20036;-79
2022/08/16 03:18:06;;;;;;;18.52;15.63;;;21.70;99.90;;;;;;5096678;28;20165;-78
2022/08/16 03:20:32;;;;;;;20.13;15.80;;;21.80;99.90;;;;;;5078342;28;20184;-79
2022/08/16 03:27:07;;;;;;;17.20;15.02;;;21.70;99.90;;;;;;5096845;28;20042;-79
2022/08/16 03:29:33;;;;;;;20.45;15.95;;;21.70;99.90;;;;;;5096960;28;20040;-79
2022/08/16 03:32:00;;;;;;;19.75;16.05;;;21.70;99.90;;;;;;5096560;28;20040;-78
2022/08/16 03:38:08;;;;;;;22.15;15.75;;;21.60;99.90;;;;;;5096420;28;20058;-78
2022/08/16 03:40:35;;;;;;;21.08;16.10;;;21.60;99.90;;;;;;5095212;28;20055;-78
2022/08/16 03:47:04;;;;;;;19.25;16.65;;;21.50;99.90;;;;;;5095129;28;20492;-78
2022/08/16 03:49:29;;;;;;;21.92;16.38;;;21.40;99.90;;;;;;5094847;28;20471;-78
2022/08/16 03:51:55;;;;;;;20.58;16.98;;;21.30;99.90;;;;;;5095221;28;20083;-78
2022/08/16 03:58:02;;;;;;;20.27;16.80;;;21.30;99.90;;;;;;5095133;28;20039;-78
2022/08/16 04:00:29;;;;;;;20.05;17.05;;;21.20;99.90;;;;;;5095168;28;20044;-78
2022/08/16 04:07:02;;;;;;;18.58;16.42;;;21.20;99.90;;;;;;5095039;28;20150;-79
2022/08/16 04:09:31;;;;;;;19.60;17.40;;;21.20;99.90;;;;;;5095042;28;20040;-78
2022/08/16 04:11:57;;;;;;;22.60;17.13;;;21.10;99.90;;;;;;5094804;28;20068;-78
2022/08/16 04:18:04;;;;;;;21.02;17.42;;;21.10;99.90;;;;;;5094607;28;20395;-77
2022/08/16 04:20:30;;;;;;;20.15;16.52;;;21.00;99.90;;;;;;5095015;28;20396;-78
2022/08/16 04:27:01;;;;;;;22.17;18.27;;;20.90;99.90;;;;;;5094557;28;20061;-79
2022/08/16 04:29:27;;;;;;;22.08;18.48;;;20.90;99.90;;;;;;5095009;28;20044;-78
2022/08/16 04:31:54;;;;;;;20.10;18.02;;;20.80;99.90;;;;;;5094350;28;20434;-78
2022/08/16 04:38:01;;;;;;;20.55;17.70;;;20.70;99.90;;;;;;5094197;28;20054;-78
2022/08/16 04:40:27;;;;;;;20.48;17.83;;;20.80;99.90;;;;;;5040161;28;1050828;-78
2022/08/16 04:46:59;;;;;;;22.10;17.73;;;20.70;99.90;;;;;;5094401;28;20591;-78
2022/08/16 04:49:25;;;;;;;19.00;16.88;;;20.70;99.90;;;;;;5094723;28;20052;-78
2022/08/16 04:51:51;;;;;;;24.35;16.95;;;20.70;99.90;;;;;;5077219;28;20043;-78
2022/08/16 04:57:58;;;;;;;21.42;16.73;;;20.70;99.90;;;;;;5095148;28;20043;-78
2022/08/16 05:00:32;;;;;;;22.45;16.73;;;20.70;99.90;;;;;;5094522;28;20044;-79
2022/08/16 05:07:13;;;;;;;22.17;16.45;;;20.70;99.90;;;;;;5094937;28;20123;-79
2022/08/16 05:09:39;;;;;;;19.92;16.55;;;20.70;99.90;;;;;;5094946;28;20040;-78
2022/08/16 05:12:04;;;;;;;20.33;16.73;;;21.00;99.90;;;;;;5094803;28;20066;-78
2022/08/16 05:18:11;;;;;;;20.35;16.67;;;20.70;99.90;;;;;;5094835;28;20085;-77
2022/08/16 05:20:36;;;;;;;20.40;16.20;;;20.80;99.90;;;;;;5094745;28;20039;-78
2022/08/16 05:27:08;;;;;;;18.80;16.20;;;20.80;99.90;;;;;;5094638;28;20408;-78
2022/08/16 05:29:35;;;;;;;22.23;16.55;;;20.90;99.90;;;;;;5094621;28;20412;-78
2022/08/16 05:32:00;;;;;;;18.58;16.52;;;20.90;99.90;;;;;;5094809;28;20032;-78
2022/08/16 05:38:06;;;;;;;18.58;16.50;;;20.90;99.90;;;;;;5094376;28;20066;-77
2022/08/16 05:40:32;;;;;;;20.33;16.42;;;20.90;99.90;;;;;;5094570;28;20048;-78
2022/08/16 05:47:07;;;;;;;22.60;16.38;;;20.90;99.90;;;;;;5094716;28;20556;-79
2022/08/16 05:49:32;;;;;;;20.42;16.83;;;20.90;99.90;;;;;;5094431;28;20088;-79
2022/08/16 05:51:58;;;;;;;19.55;16.75;;;20.90;99.90;;;;;;5094458;28;20083;-79
2022/08/16 05:58:05;;;;;;;22.17;16.20;;;20.90;99.90;;;;;;5094227;28;20031;-79
2022/08/16 06:00:31;;;;;;;19.67;15.95;;;20.90;99.90;;;;;;5093824;28;20048;-79
2022/08/16 06:07:05;;;;;;;19.38;14.77;;;21.00;99.90;;;;;;5094190;28;20085;-79
2022/08/16 06:09:32;;;;;;;20.00;15.45;;;21.10;99.90;;;;;;5094010;28;20067;-79
2022/08/16 06:12:01;;;;;;;19.48;15.63;;;21.10;99.90;;;;;;5109359;28;20457;-79
2022/08/16 06:18:07;;;;;;;18.80;15.07;;;21.30;99.90;;;;;;5093145;28;20112;-77
2022/08/16 06:20:33;;;;;;;18.45;16.17;;;21.40;99.90;;;;;;5093711;28;20460;-77
2022/08/16 06:27:04;;;;;;;18.52;15.05;;;21.40;99.90;;;;;;5093445;28;20449;-77
2022/08/16 06:29:30;;;;;;;17.20;15.43;;;21.50;99.90;;;;;;5093179;28;20051;-76
2022/08/16 06:31:55;;;;;;;17.27;14.27;;;21.50;99.90;;;;;;5092751;28;20056;-77
2022/08/16 06:38:03;;;;;;;19.80;14.85;;;21.60;99.90;;;;;;5093069;28;20102;-77
2022/08/16 06:40:30;;;;;;;21.45;15.52;;;21.70;99.90;;;;;;5091949;28;20051;-77
2022/08/16 06:47:01;;;;;;;19.80;14.95;;;21.80;99.90;;;;;;5092641;28;20399;-76
2022/08/16 06:49:26;;;;;;;18.92;15.05;;;21.80;99.90;;;;;;5093080;28;20066;-76
2022/08/16 06:51:52;;;;;;;17.67;14.85;;;21.80;99.90;;;;;;5093327;28;20464;-77
2022/08/16 06:57:58;;;;;;;19.73;16.00;;;22.00;99.90;;;;;;5092933;28;20066;-77
2022/08/16 07:00:24;;;;;;;21.40;16.27;;;22.10;99.90;;;;;;5093439;28;20044;-76
2022/08/16 07:07:00;;;;;;;17.00;14.77;;;22.20;99.90;;;;;;5092615;28;20040;-77
2022/08/16 07:09:25;;;;;;;20.02;14.88;;;22.20;99.90;;;;;;5092736;28;20043;-77
2022/08/16 07:11:51;;;;;;;19.45;15.70;;;22.30;99.90;;;;;;5074734;28;20048;-77
2022/08/16 07:17:59;;;;;;;20.00;14.63;;;22.40;99.90;;;;;;5092102;28;20035;-76
2022/08/16 07:20:27;;;;;;;20.90;15.60;;;22.40;99.90;;;;;;5092730;28;20066;-76
2022/08/16 07:26:58;;;;;;;18.85;15.32;;;22.60;99.90;;;;;;5096210;28;20487;-77
2022/08/16 07:29:24;;;;;;;19.85;15.23;;;22.70;99.90;;;;;;5095937;28;20470;-77
2022/08/16 07:31:50;;;;;;;24.30;15.63;;;22.80;99.90;;;;;;5096108;28;20048;-76
2022/08/16 07:37:57;;;;;;;14.02;11.93;;;22.90;99.90;;;;;;5096941;28;20039;-79
2022/08/16 07:40:24;;;;;;;15.45;12.88;;;23.00;99.90;;;;;;5078346;28;20389;-80
2022/08/16 07:47:11;;;;;;;18.08;13.02;;;23.20;99.90;;;;;;5096515;28;20074;-80
2022/08/16 07:49:36;;;;;;;14.95;12.00;;;23.30;99.90;;;;;;5096600;28;20128;-81
2022/08/16 07:52:02;;;;;;;16.13;13.15;;;23.30;99.90;;;;;;5096361;28;20040;-80
2022/08/16 07:58:08;;;;;;;13.07;11.68;;;23.50;99.90;;;;;;5096277;28;20047;-78
2022/08/16 08:00:35;;;;;;;16.75;13.32;;;23.60;99.90;;;;;;5095887;28;20040;-77
2022/08/16 08:07:11;;;;;;;14.10;11.32;;;23.70;99.90;;;;;;5096281;28;20388;-78
2022/08/16 08:09:36;;;;;;;15.13;12.45;;;23.90;99.90;;;;;;5095848;28;20380;-75
2022/08/16 08:12:02;;;;;;;14.25;11.50;;;23.90;99.90;;;;;;5095491;28;20043;-77
2022/08/16 08:18:09;;;;;;;13.25;10.70;;;24.10;99.90;;;;;;5095088;28;20042;-75
2022/08/16 08:24:52;;;;;;;14.68;11.70;;;24.20;99.90;;;;;;5094983;28;20043;-78
2022/08/16 08:27:18;;;;;;;14.88;12.05;;;24.40;99.90;;;;;;5094901;28;20070;-75
2022/08/16 08:29:44;;;;;;;18.83;13.38;;;24.50;99.90;;;;;;5094615;28;20396;-75
2022/08/16 08:32:09;;;;;;;19.05;13.88;;;24.60;99.90;;;;;;5095444;28;20043;-75
2022/08/16 08:38:16;;;;;;;15.82;12.27;;;24.70;99.90;;;;;;5094070;28;20055;-75
2022/08/16 08:40:42;;;;;;;13.65;10.95;;;24.90;99.90;;;;;;5094054;28;20048;-75
2022/08/16 08:46:48;;;;;;;14.05;10.75;;;25.10;99.90;;;;;;5094738;28;20043;-77
2022/08/16 08:49:14;;;;;;;15.63;11.23;;;25.20;99.90;;;;;;5094929;28;20480;-77
2022/08/16 08:51:39;;;;;;;14.65;11.27;;;25.40;99.90;;;;;;5076578;28;20043;-77
2022/08/16 08:57:46;;;;;;;12.73;10.50;;;25.50;99.90;;;;;;5094695;28;20081;-77
2022/08/16 09:00:17;;;;;;;14.00;10.35;;;25.60;99.90;;;;;;5094435;28;20504;-78
2022/08/16 09:07:04;;;;;;;11.02;9.23;;;25.80;99.90;;;;;;5093883;28;20127;-75
2022/08/16 09:09:30;;;;;;;11.85;9.68;;;26.10;99.90;;;;;;5092714;28;20062;-75
2022/08/16 09:11:56;;;;;;;12.82;8.88;;;26.20;99.90;;;;;;5093905;28;20040;-75
2022/08/16 09:18:04;;;;;;;11.95;8.38;;;26.50;99.90;;;;;;5093639;28;20089;-75
2022/08/16 09:20:30;;;;;;;12.40;8.63;;;26.70;99.90;;;;;;5093500;28;20083;-75
2022/08/16 09:27:01;;;;;;;15.48;7.70;;;27.10;99.90;;;;;;5093343;28;20039;-76
2022/08/16 09:29:27;;;;;;;10.15;7.88;;;27.40;99.90;;;;;;5093697;28;20457;-76
2022/08/16 09:31:55;;;;;;;9.85;7.43;;;27.70;99.90;;;;;;5093347;28;20072;-76
2022/08/16 09:38:02;;;;;;;11.43;7.40;;;28.40;99.90;;;;;;5093205;28;20042;-75
2022/08/16 09:40:29;;;;;;;8.45;6.60;;;28.80;99.90;;;;;;5092498;28;20390;-76
2022/08/16 09:46:58;;;;;;;;;;;29.40;99.40;;;;;;5093305;28;20552;-75
2022/08/16 09:49:25;;;;;;;7.25;6.50;;;29.70;99.20;;;;;;5093673;28;20107;-77
2022/08/16 09:51:53;;;;;;;7.80;6.20;;;29.90;98.30;;;;;;5074983;28;20044;-76
2022/08/16 09:57:59;;;;;;;13.80;6.75;;;30.30;97.50;;;;;;5093086;28;20057;-78
2022/08/16 10:00:25;;;;;;;10.63;6.00;;;30.30;96.90;;;;;;5093216;28;20123;-75
2022/08/16 10:06:57;;;;;;;10.80;6.60;;;30.20;97.30;;;;;;5093288;28;20472;-76
2022/08/16 10:09:24;;;;;;;8.05;6.25;;;30.50;96.20;;;;;;5093434;28;20101;-76
2022/08/16 10:18:15;;;;;;;9.77;5.88;;;30.80;96.30;;;;;;5092848;28;20043;-75
2022/08/16 10:20:44;;;;;;;8.45;6.60;;;31.20;96.00;;;;;;5092862;28;20124;-76
2022/08/16 10:27:12;;;;;;;9.45;7.10;;;31.70;95.30;;;;;;5092307;28;20039;-75
2022/08/16 10:33:56;;;;;;;8.98;6.43;;;32.70;94.50;;;;;;5095531;28;20498;-74
2022/08/16 10:40:06;;;;;;;10.85;6.15;;;33.50;93.00;;;;;;5075916;28;20055;-74
2022/08/16 10:42:32;;;;;;;9.45;6.50;;;33.60;92.60;;;;;;5091510;28;20063;-74
2022/08/16 10:44:57;;;;;;;10.32;6.00;;;33.80;92.40;;;;;;5091357;28;20044;-74
2022/08/16 10:47:24;;;;;;;11.80;6.78;;;33.90;92.30;;;;;;5092011;28;20063;-74
2022/08/16 10:49:50;;;;;;;11.98;7.45;;;34.00;92.00;;;;;;5091712;28;20132;-74
2022/08/16 10:52:16;;;;;;;12.57;6.60;;;33.80;91.60;;;;;;5091391;28;20095;-74
2022/08/16 10:58:22;;;;;;;12.15;6.55;;;33.40;91.80;;;;;;5090943;28;20401;-72
2022/08/16 11:00:48;;;;;;;9.60;6.50;;;33.20;92.10;;;;;;5094948;28;20124;-73
2022/08/16 11:07:08;;;;;;;9.25;5.88;;;33.50;91.60;;;;;;5095128;28;20513;-73
2022/08/16 11:09:34;;;;;;;10.32;6.75;;;33.60;91.70;;;;;;5095471;28;20130;-73
2022/08/16 11:12:00;;;;;;;10.15;5.63;;;33.50;91.40;;;;;;5095509;28;20067;-73
2022/08/16 11:18:07;;;;;;;8.13;6.72;;;33.70;91.60;;;;;;5095375;28;20464;-74
2022/08/16 11:20:33;;;;;;;8.43;5.35;;;34.40;91.00;;;;;;5094861;28;20087;-73
2022/08/16 11:27:05;;;;;;;11.27;5.60;;;35.50;89.80;;;;;;5095088;28;20039;-73
2022/08/16 11:29:30;;;;;;;10.77;5.68;;;36.40;89.30;;;;;;5095117;28;20044;-73
2022/08/16 11:31:56;;;;;;;10.27;4.70;;;37.20;87.00;;;;;;5076965;28;20097;-73
2022/08/16 11:38:09;;;;;;;6.30;4.60;;;39.30;83.70;;;;;;5097362;28;20047;-79
2022/08/16 11:40:45;;;;;;;7.15;4.35;;;40.70;80.40;;;;;;5096852;28;20135;-79
2022/08/16 11:47:05;;;;;;;7.88;4.05;;;42.10;74.00;;;;;;5096470;28;20032;-78
2022/08/16 11:49:31;;;;;;;6.15;4.53;;;42.20;72.30;;;;;;5097079;28;20048;-78
2022/08/16 11:51:57;;;;;;;6.53;3.83;;;42.50;71.60;;;;;;5062020;28;20044;-77
2022/08/16 11:58:05;;;;;;;7.65;4.00;;;43.10;71.40;;;;;;5096676;28;20082;-78
2022/08/16 12:00:31;;;;;;;7.05;4.00;;;43.70;69.20;;;;;;5096751;28;20040;-78
2022/08/16 12:07:03;;;;;;;8.13;4.38;;;44.00;68.00;;;;;;5096741;28;20089;-79
2022/08/16 12:09:29;;;;;;;5.93;4.07;;;44.40;67.50;;;;;;5096152;28;20048;-78
2022/08/16 12:11:55;;;;;;;5.50;3.63;;;44.50;66.20;;;;;;5096855;28;20043;-78
2022/08/16 12:18:16;;;;;;;7.20;4.30;;;44.30;65.10;;;;;;5096466;28;20071;-78
2022/08/16 12:20:43;;;;;;;8.77;4.38;;;42.50;65.20;;;;;;5096253;28;20109;-78
2022/08/16 12:27:01;;;;;;;6.97;3.97;;;40.10;67.70;;;;;;5094667;28;20062;-76
2022/08/16 12:29:27;;;;;;;7.53;4.03;;;39.30;67.80;;;;;;5094516;28;20165;-76
2022/08/16 12:31:53;;;;;;;5.93;4.00;;;38.60;68.70;;;;;;5094539;28;20051;-76
2022/08/16 12:38:00;;;;;;;7.35;4.60;;;37.00;69.80;;;;;;5094904;28;20134;-76
2022/08/16 12:40:31;;;;;;;9.73;4.40;;;36.20;70.50;;;;;;5094311;28;20449;-76
2022/08/16 12:50:00;;;;;;;8.52;3.88;;;34.40;72.30;;;;;;5077195;28;20381;-83
2022/08/16 12:52:26;;;;;;;6.57;4.60;;;34.10;73.10;;;;;;5097168;28;20095;-84
2022/08/16 12:58:55;;;;;;;7.20;4.80;;;33.90;73.20;;;;;;5096364;28;20057;-84
2022/08/16 13:01:25;;;;;;;7.38;4.55;;;33.70;74.50;;;;;;5077081;28;20067;-84
2022/08/16 13:07:32;;;;;;;10.48;4.63;;;33.30;73.70;;;;;;5095743;28;20050;-84
2022/08/16 13:10:07;;;;;;;8.70;4.43;;;33.10;74.20;;;;;;5095587;28;20051;-84
2022/08/16 13:12:38;;;;;;;13.38;5.60;;;32.80;74.80;;;;;;5095480;28;20119;-85
2022/08/16 13:15:09;;;;;;;10.23;5.75;;;32.50;75.70;;;;;;5095921;28;20097;-84
2022/08/16 13:17:37;;;;;;;7.40;4.95;;;32.30;76.50;;;;;;5077499;28;20120;-84
2022/08/16 13:20:06;;;;;;;8.60;6.18;;;32.20;77.50;;;;;;5095597;28;20040;-85
2022/08/16 13:22:32;;;;;;;9.15;7.72;;;32.20;78.50;;;;;;5094523;28;20408;-85
2022/08/16 13:24:58;;;;;;;12.77;7.30;;;32.00;79.60;;;;;;5095109;28;20040;-83
2022/08/16 13:27:23;;;;;;;10.82;6.18;;;31.80;80.70;;;;;;5095426;28;20052;-85
2022/08/16 13:29:49;;;;;;;10.05;6.53;;;31.70;80.60;;;;;;5095063;28;20477;-84
2022/08/16 13:32:15;;;;;;;10.50;5.82;;;31.60;80.30;;;;;;5095286;28;20050;-84
2022/08/16 13:38:22;;;;;;;10.35;7.82;;;31.50;79.90;;;;;;5098373;28;20503;-85
2022/08/16 13:40:48;;;;;;;12.68;7.57;;;31.50;81.70;;;;;;5099874;28;20060;-84
2022/08/16 13:47:07;;;;;;;9.65;7.70;;;31.20;82.30;;;;;;5099434;28;20443;-85
2022/08/16 13:49:34;;;;;;;10.05;7.75;;;31.10;84.20;;;;;;5100379;28;20035;-84
2022/08/16 13:52:00;;;;;;;10.90;8.23;;;31.10;85.00;;;;;;5101045;28;20044;-83
2022/08/16 13:58:07;;;;;;;8.90;7.15;;;31.10;85.80;;;;;;5099447;28;20450;-83
2022/08/16 14:00:33;;;;;;;9.27;5.88;;;31.20;84.90;;;;;;5085053;28;20048;-84
2022/08/16 14:07:11;;;;;;;10.10;6.45;;;31.30;84.30;;;;;;5104316;28;20089;-83
2022/08/16 14:09:46;;;;;;;12.73;7.43;;;31.40;84.30;;;;;;5082407;28;20112;-84
2022/08/16 14:12:19;;;;;;;;;;;31.40;84.80;;;;;;5068470;28;20445;-84
2022/08/16 14:18:26;;;;;;;11.68;5.15;;;31.50;83.80;;;;;;5105130;28;20101;-85
2022/08/16 14:20:52;;;;;;;5.80;4.20;;;31.50;82.90;;;;;;5113591;28;20107;-88
2022/08/16 14:27:03;;;;;;;7.07;5.70;;;31.20;83.00;;;;;;5115602;28;20129;-89
2022/08/16 14:29:29;;;;;;;12.30;6.97;;;31.10;86.30;;;;;;5099718;28;20024;-89
2022/08/16 14:31:58;;;;;;;10.50;6.40;;;31.10;87.20;;;;;;5099736;28;20123;-88
2022/08/16 14:38:05;;;;;;;9.80;5.18;;;31.00;87.90;;;;;;5122214;28;20070;-88
2022/08/16 14:40:31;;;;;;;7.47;5.10;;;30.90;87.80;;;;;;5121503;28;20052;-88
2022/08/16 14:46:52;;;;;;;11.20;6.28;;;30.90;86.60;;;;;;5063577;22;20099;-87
2022/08/16 14:49:20;;;;;;;10.60;5.90;;;30.70;87.90;;;;;;5013244;28;20051;-87
2022/08/16 14:51:47;;;;;;;9.85;5.35;;;30.60;88.00;;;;;;5037418;28;20042;-89
2022/08/16 14:54:13;;;;;;;7.45;4.85;;;30.50;87.50;;;;;;5020496;28;20049;-88
2022/08/16 14:56:39;;;;;;;8.75;4.55;;;30.40;85.80;;;;;;5043043;28;20384;-90
2022/08/16 14:59:05;;;;;;;8.23;5.00;;;30.20;86.20;;;;;;4997771;28;20048;-89
2022/08/16 15:01:31;;;;;;;10.38;5.65;;;30.10;86.60;;;;;;5013333;28;20056;-88
2022/08/16 19:48:30;;;;;;;21.75;16.77;;;24.50;99.90;;;;;;5054369;23;20456;-77
2022/08/16 19:50:56;;;;;;;25.50;17.63;;;24.20;99.90;;;;;;5033829;28;20045;-77
2022/08/16 19:53:22;;;;;;;22.27;17.70;;;24.10;99.90;;;;;;5015463;28;20132;-77
2022/08/16 19:55:48;;;;;;;23.20;18.75;;;24.10;99.90;;;;;;5033954;28;20577;-77
2022/08/16 19:58:15;;;;;;;20.83;18.25;;;24.10;99.90;;;;;;5034307;28;20041;-77
2022/08/16 20:00:42;;;;;;;21.92;18.63;;;24.10;99.90;;;;;;5033666;28;20045;-76
2022/08/16 20:03:19;;;;;;;22.95;19.20;;;24.00;99.90;;;;;;5030580;28;20073;-76
2022/08/16 20:05:46;;;;;;;20.58;18.33;;;23.80;99.90;;;;;;5030400;28;20386;-76
2022/08/16 20:08:12;;;;;;;21.05;18.85;;;23.90;99.90;;;;;;5031494;28;20095;-76
2022/08/16 20:10:41;;;;;;;20.92;18.13;;;23.80;99.90;;;;;;5031087;28;20099;-77
2022/08/16 20:13:12;;;;;;;21.13;18.92;;;23.80;99.90;;;;;;5030176;28;20100;-77
2022/08/16 20:15:39;;;;;;;21.08;18.73;;;23.70;99.90;;;;;;5027123;28;20397;-76
2022/08/16 20:18:05;;;;;;;20.95;18.42;;;23.70;99.90;;;;;;5030833;28;20041;-77
2022/08/16 20:20:30;;;;;;;22.63;19.73;;;23.70;99.90;;;;;;5032286;28;20331;-78
2022/08/16 20:22:56;;;;;;;21.60;18.15;;;23.70;99.90;;;;;;5031726;28;20053;-77
2022/08/16 20:25:27;;;;;;;21.50;19.25;;;23.60;99.90;;;;;;5031095;28;20041;-77
2022/08/16 20:27:53;;;;;;;22.45;18.63;;;23.60;99.90;;;;;;5029152;28;20041;-76
2022/08/16 20:30:19;;;;;;;20.85;18.10;;;23.60;99.90;;;;;;5026337;28;20069;-77
2022/08/16 20:32:45;;;;;;;22.17;19.08;;;23.60;99.90;;;;;;5031432;28;20079;-77
2022/08/16 20:35:15;;;;;;;21.55;18.15;;;23.50;99.90;;;;;;5036233;28;20040;-77
2022/08/16 20:37:41;;;;;;;22.65;18.50;;;23.50;99.90;;;;;;5032699;28;20143;-76
2022/08/16 20:40:14;;;;;;;22.13;19.17;;;23.50;99.90;;;;;;5024752;28;20038;-76
2022/08/16 20:42:40;;;;;;;22.35;19.13;;;23.50;99.90;;;;;;5025392;28;20056;-76
2022/08/16 20:45:08;;;;;;;21.20;18.80;;;23.40;99.90;;;;;;5019431;28;20401;-77
2022/08/16 20:47:34;;;;;;;23.13;19.67;;;23.40;99.90;;;;;;5027774;28;20081;-77
2022/08/16 20:49:59;;;;;;;21.85;18.65;;;23.30;99.90;;;;;;5031218;28;20077;-77
2022/08/16 20:52:26;;;;;;;21.30;19.00;;;23.30;99.90;;;;;;5030569;28;20076;-77
2022/08/16 20:54:53;;;;;;;25.88;20.15;;;23.20;99.90;;;;;;5048207;28;20056;-76
2022/08/16 20:57:19;;;;;;;26.05;20.20;;;23.20;99.90;;;;;;5035758;28;20494;-76
2022/08/16 20:59:46;;;;;;;21.88;19.13;;;23.10;99.90;;;;;;5028916;28;20121;-76
2022/08/16 21:02:15;;;;;;;21.55;19.20;;;23.10;99.90;;;;;;5031398;28;20045;-77
2022/08/16 21:04:41;;;;;;;21.65;18.75;;;23.10;99.90;;;;;;5028320;28;20044;-76
2022/08/16 21:07:07;;;;;;;23.38;19.98;;;23.10;99.90;;;;;;5032751;28;20041;-76
2022/08/16 21:09:34;;;;;;;24.88;20.25;;;23.10;99.90;;;;;;5033843;28;20403;-77
2022/08/16 21:12:04;;;;;;;24.35;20.55;;;23.10;99.90;;;;;;5032741;28;20037;-76
2022/08/16 21:14:32;;;;;;;23.77;20.98;;;23.10;99.90;;;;;;5032751;28;20168;-80
2022/08/16 21:17:00;;;;;;;25.55;20.27;;;23.00;99.90;;;;;;5031806;28;20049;-80
2022/08/16 21:19:26;;;;;;;24.33;20.67;;;23.00;99.90;;;;;;5031851;28;20053;-80
2022/08/16 21:21:52;;;;;;;23.65;20.88;;;23.00;99.90;;;;;;5033837;28;20045;-80
2022/08/16 21:24:18;;;;;;;25.23;21.38;;;23.00;99.90;;;;;;5033814;28;20091;-79
2022/08/16 21:26:44;;;;;;;24.17;20.92;;;22.90;99.90;;;;;;5032840;28;20037;-79
2022/08/16 21:29:10;;;;;;;26.20;21.35;;;22.90;99.90;;;;;;5033447;28;20124;-79
2022/08/16 21:31:36;;;;;;;26.75;21.85;;;22.90;99.90;;;;;;5033237;28;20126;-79
2022/08/16 21:34:01;;;;;;;26.50;22.00;;;22.90;99.90;;;;;;5032578;28;20045;-80
2022/08/16 21:36:27;;;;;;;24.75;21.63;;;22.90;99.90;;;;;;5033357;28;20482;-79
2022/08/16 21:38:53;;;;;;;25.50;21.33;;;22.80;99.90;;;;;;5032302;28;20049;-79
2022/08/16 21:41:19;;;;;;;25.30;20.48;;;22.80;99.90;;;;;;5015759;28;20053;-79
2022/08/16 21:43:44;;;;;;;21.70;19.17;;;22.80;99.90;;;;;;5032815;28;20091;-79
2022/08/16 21:46:10;;;;;;;21.13;18.75;;;22.70;99.90;;;;;;5033075;28;20538;-79
2022/08/16 21:48:36;;;;;;;23.13;19.10;;;22.70;99.90;;;;;;5031952;28;20485;-79
2022/08/16 21:51:07;;;;;;;21.95;19.35;;;22.80;99.90;;;;;;5032963;28;20041;-79
2022/08/16 21:53:34;;;;;;;23.20;19.00;;;22.70;99.90;;;;;;5033199;28;20049;-79
2022/08/16 21:56:00;;;;;;;24.60;20.48;;;22.70;99.90;;;;;;5033325;28;20029;-79
2022/08/16 21:58:26;;;;;;;22.92;20.05;;;22.70;99.90;;;;;;5031299;28;20041;-79
2022/08/16 22:00:52;;;;;;;24.25;20.08;;;22.70;99.90;;;;;;5028862;28;20509;-79
2022/08/16 22:03:19;;;;;;;24.73;19.83;;;22.60;99.90;;;;;;5031995;28;20049;-79
2022/08/16 22:05:46;;;;;;;22.05;19.67;;;22.60;99.90;;;;;;5035390;28;20042;-80
2022/08/16 22:08:13;;;;;;;28.85;20.13;;;22.60;99.90;;;;;;5032991;28;20124;-80
2022/08/16 22:10:42;;;;;;;22.83;19.58;;;22.60;99.90;;;;;;5033235;28;20045;-80
2022/08/16 22:13:18;;;;;;;26.20;19.67;;;22.60;99.90;;;;;;5013632;28;20091;-79
2022/08/16 22:15:45;;;;;;;25.35;19.92;;;22.60;99.90;;;;;;5031920;28;20045;-79
2022/08/16 22:18:11;;;;;;;25.83;19.42;;;22.60;99.90;;;;;;5032740;28;20045;-79
2022/08/16 22:20:37;;;;;;;21.90;19.58;;;22.60;99.90;;;;;;5030547;28;20037;-79
2022/08/16 22:23:16;;;;;;;23.55;20.63;;;22.60;99.90;;;;;;5030147;28;20038;-79
2022/08/16 22:25:44;;;;;;;23.17;20.73;;;22.60;99.90;;;;;;5032722;28;20050;-79
2022/08/16 22:28:10;;;;;;;25.30;20.13;;;22.50;99.90;;;;;;5032497;28;20053;-79
2022/08/16 22:30:36;;;;;;;25.15;20.48;;;22.50;99.90;;;;;;5026049;28;20045;-79
2022/08/16 22:33:10;;;;;;;24.92;20.30;;;22.50;99.90;;;;;;5026334;28;20041;-79
2022/08/16 22:35:51;;;;;;;27.02;21.50;;;22.40;99.90;;;;;;5032224;28;20048;-79
2022/08/16 22:38:18;;;;;;;23.85;21.25;;;22.40;99.90;;;;;;5033093;28;20179;-79
2022/08/16 22:40:44;;;;;;;24.20;21.20;;;22.30;99.90;;;;;;5030344;28;20033;-79
2022/08/16 22:43:11;;;;;;;25.15;21.42;;;22.30;99.90;;;;;;5021103;28;20401;-79
2022/08/16 22:45:37;;;;;;;27.02;22.98;;;22.30;99.90;;;;;;5031950;28;20045;-79
2022/08/16 22:48:04;;;;;;;27.65;22.95;;;22.30;99.90;;;;;;5015385;28;20510;-79
2022/08/16 22:50:31;;;;;;;28.30;23.45;;;22.30;99.90;;;;;;5028527;28;20049;-78
2022/08/16 22:52:57;;;;;;;27.88;23.75;;;22.20;99.90;;;;;;5031930;28;20393;-79
2022/08/16 22:55:25;;;;;;;29.65;24.00;;;22.20;99.90;;;;;;5036687;28;20120;-79
2022/08/16 22:57:52;;;;;;;27.30;24.17;;;22.20;99.90;;;;;;5036164;28;20400;-79